Time;durP1;ratioP1;P1;durP2;ratioP2;P2;SDS_P1;SDS_P2;PMS_P1;PMS_P2;Temp;Humidity;BMP_temperature;BMP_pressure;BME280_temperature;BME280_humidity;BME280_pressure;Samples;Min_cycle;Max_cycle;Signal;HPM_P1;HPM_P2
2022/07/31 00:00:18;;;;;;;9.82;4.80;;;20.70;33.50;;;;;;5071668;28;20463;-74
2022/07/31 00:02:44;;;;;;;7.27;4.80;;;20.70;33.90;;;;;;5072533;28;20860;-75
2022/07/31 00:05:10;;;;;;;6.43;4.50;;;20.60;34.40;;;;;;5072150;28;20395;-74
2022/07/31 00:07:36;;;;;;;11.63;5.30;;;20.60;34.90;;;;;;5072827;28;20870;-75
2022/07/31 00:10:02;;;;;;;8.70;5.33;;;20.60;35.10;;;;;;5071125;28;20557;-75
2022/07/31 00:12:28;;;;;;;8.68;4.50;;;20.60;35.30;;;;;;5071598;28;20414;-76
2022/07/31 00:14:53;;;;;;;9.63;4.28;;;20.60;35.80;;;;;;5073067;28;20379;-74
2022/07/31 00:17:19;;;;;;;8.67;4.60;;;20.60;35.90;;;;;;5073048;28;20466;-76
2022/07/31 00:19:45;;;;;;;10.27;5.30;;;20.60;36.10;;;;;;5072320;28;20388;-75
2022/07/31 00:22:12;;;;;;;7.37;4.40;;;20.50;36.80;;;;;;5071379;28;20408;-76
2022/07/31 00:24:38;;;;;;;9.95;4.80;;;20.50;37.20;;;;;;5071830;28;20375;-74
2022/07/31 00:27:03;;;;;;;10.95;4.85;;;20.40;37.70;;;;;;5071310;28;20873;-75
2022/07/31 00:29:29;;;;;;;8.70;4.82;;;20.30;38.30;;;;;;5071711;28;20410;-74
2022/07/31 00:31:55;;;;;;;5.47;4.20;;;20.30;38.80;;;;;;5070873;28;20433;-76
2022/07/31 00:34:21;;;;;;;9.50;4.53;;;20.20;38.70;;;;;;5072474;28;20391;-74
2022/07/31 00:36:47;;;;;;;8.47;5.50;;;20.20;38.90;;;;;;5072295;28;20380;-74
2022/07/31 00:39:13;;;;;;;8.13;4.87;;;20.20;39.20;;;;;;5072090;28;20380;-75
2022/07/31 00:41:43;;;;;;;7.93;4.60;;;20.10;39.80;;;;;;5071652;28;20415;-75
2022/07/31 00:44:12;;;;;;;5.88;4.53;;;20.00;40.20;;;;;;5070475;28;20376;-74
2022/07/31 00:46:39;;;;;;;9.73;5.10;;;20.00;40.50;;;;;;5074802;28;20382;-75
2022/07/31 00:49:11;;;;;;;7.45;5.00;;;19.90;41.30;;;;;;5073517;28;20450;-76
2022/07/31 00:51:40;;;;;;;6.50;4.80;;;19.90;42.00;;;;;;5070871;28;20380;-76
2022/07/31 00:54:07;;;;;;;8.93;4.70;;;19.90;42.70;;;;;;5071752;28;20458;-76
2022/07/31 00:56:33;;;;;;;8.68;4.80;;;19.90;43.00;;;;;;5072621;28;20749;-77
2022/07/31 00:58:59;;;;;;;9.02;5.03;;;19.80;44.10;;;;;;5074055;28;20467;-79
2022/07/31 01:01:25;;;;;;;7.15;4.65;;;19.90;44.50;;;;;;5074329;28;20911;-77
2022/07/31 01:03:52;;;;;;;7.60;4.85;;;19.80;45.30;;;;;;5074868;28;20390;-76
2022/07/31 01:06:18;;;;;;;7.75;4.90;;;19.70;46.40;;;;;;5075436;28;20387;-76
2022/07/31 01:08:43;;;;;;;9.27;5.13;;;19.70;46.90;;;;;;5074828;28;20844;-77
2022/07/31 01:11:12;;;;;;;10.15;5.63;;;19.70;47.50;;;;;;5074024;28;20445;-75
2022/07/31 01:13:46;;;;;;;7.07;4.85;;;19.70;47.20;;;;;;5074442;28;20809;-75
2022/07/31 01:16:13;;;;;;;10.48;6.00;;;19.60;47.30;;;;;;5073117;28;20376;-78
2022/07/31 01:18:39;;;;;;;6.80;5.43;;;19.50;48.50;;;;;;5075102;28;20432;-76
2022/07/31 01:21:10;;;;;;;10.60;5.35;;;19.40;49.30;;;;;;5072240;28;20380;-77
2022/07/31 01:23:41;;;;;;;8.57;5.20;;;19.40;49.50;;;;;;5071889;28;20391;-77
2022/07/31 01:26:17;;;;;;;7.43;5.30;;;19.40;49.50;;;;;;5072400;28;20492;-76
2022/07/31 01:29:08;;;;;;;6.82;5.25;;;19.50;49.00;;;;;;5072255;28;20383;-77
2022/07/31 01:31:42;;;;;;;5.35;4.35;;;19.60;47.70;;;;;;5075850;28;20394;-77
2022/07/31 01:34:22;;;;;;;8.52;5.50;;;19.70;46.90;;;;;;5077970;28;20380;-77
2022/07/31 01:36:56;;;;;;;6.38;4.88;;;19.70;46.40;;;;;;5077349;28;20441;-75
2022/07/31 01:39:22;;;;;;;9.40;4.75;;;19.70;45.50;;;;;;5074190;28;20384;-76
2022/07/31 01:41:49;;;;;;;9.43;5.55;;;19.80;44.40;;;;;;5074410;28;20438;-76
2022/07/31 01:44:17;;;;;;;5.55;4.70;;;19.70;44.20;;;;;;5079590;28;20387;-75
2022/07/31 01:46:46;;;;;;;8.75;4.82;;;19.70;44.30;;;;;;5078480;28;20426;-75
2022/07/31 01:49:13;;;;;;;8.35;5.15;;;19.70;43.50;;;;;;5079548;28;20483;-75
2022/07/31 01:51:40;;;;;;;9.38;4.95;;;19.70;43.10;;;;;;5089983;28;20446;-75
2022/07/31 01:54:07;;;;;;;6.28;4.13;;;19.70;42.30;;;;;;5088557;28;20383;-76
2022/07/31 01:56:34;;;;;;;7.63;5.00;;;19.80;41.40;;;;;;5075717;28;20557;-75
2022/07/31 01:59:01;;;;;;;9.60;5.18;;;19.80;41.50;;;;;;5074944;28;20398;-75
2022/07/31 02:01:28;;;;;;;7.80;4.88;;;19.80;41.00;;;;;;5073996;28;20510;-75
2022/07/31 02:03:56;;;;;;;8.93;4.63;;;19.70;41.50;;;;;;5075341;28;20376;-76
2022/07/31 02:06:23;;;;;;;10.57;4.70;;;19.70;41.60;;;;;;5074696;28;20769;-75
2022/07/31 02:08:50;;;;;;;7.35;4.80;;;19.70;42.00;;;;;;5074212;28;20439;-76
2022/07/31 02:11:18;;;;;;;7.30;4.60;;;19.60;41.90;;;;;;5073447;28;20387;-76
2022/07/31 02:13:48;;;;;;;7.57;4.90;;;19.60;41.60;;;;;;5074487;28;20391;-76
2022/07/31 02:16:16;;;;;;;7.05;4.65;;;19.50;41.90;;;;;;5073975;28;20475;-76
2022/07/31 02:18:42;;;;;;;9.95;5.75;;;19.50;42.40;;;;;;5075534;28;20387;-75
2022/07/31 02:21:08;;;;;;;6.78;4.57;;;19.40;42.60;;;;;;5074120;28;20387;-76
2022/07/31 02:23:33;;;;;;;6.40;4.75;;;19.40;43.10;;;;;;5074622;28;20400;-75
2022/07/31 02:26:01;;;;;;;7.43;4.60;;;19.40;42.70;;;;;;5074873;28;20415;-75
2022/07/31 02:28:31;;;;;;;10.98;5.35;;;19.40;42.60;;;;;;5073182;28;20429;-75
2022/07/31 02:30:57;;;;;;;9.90;5.22;;;19.40;42.20;;;;;;5073655;28;20390;-77
2022/07/31 02:33:25;;;;;;;7.28;4.57;;;19.40;42.20;;;;;;5076194;28;20380;-77
2022/07/31 02:35:54;;;;;;;4.73;4.30;;;19.40;41.60;;;;;;5075462;28;20447;-75
2022/07/31 02:38:22;;;;;;;9.38;4.65;;;19.50;40.50;;;;;;5073785;28;20376;-76
2022/07/31 02:40:51;;;;;;;7.75;4.80;;;19.50;40.30;;;;;;5073118;28;20406;-76
2022/07/31 02:43:18;;;;;;;6.55;4.40;;;19.50;40.30;;;;;;5073084;28;20437;-75
2022/07/31 02:45:44;;;;;;;9.02;4.70;;;19.50;39.60;;;;;;5073063;28;20929;-75
2022/07/31 02:48:10;;;;;;;6.00;4.27;;;19.60;38.60;;;;;;5073282;28;20406;-76
2022/07/31 02:50:37;;;;;;;5.57;4.40;;;19.60;38.70;;;;;;5073507;28;20892;-76
2022/07/31 02:53:02;;;;;;;10.00;4.30;;;19.60;38.60;;;;;;5072597;28;20869;-75
2022/07/31 02:55:29;;;;;;;8.52;3.90;;;19.60;38.10;;;;;;5073900;28;20605;-76
2022/07/31 02:57:55;;;;;;;5.78;4.28;;;19.60;37.70;;;;;;5074911;28;20423;-75
2022/07/31 03:00:25;;;;;;;5.90;4.33;;;19.70;37.10;;;;;;5073349;28;20420;-77
2022/07/31 03:02:53;;;;;;;6.80;3.75;;;19.70;36.40;;;;;;5073181;28;20387;-77
2022/07/31 03:05:19;;;;;;;7.13;4.40;;;19.70;36.20;;;;;;5075042;28;20384;-75
2022/07/31 03:07:45;;;;;;;7.05;4.95;;;19.70;36.30;;;;;;5073559;28;20390;-76
2022/07/31 03:10:11;;;;;;;5.70;4.20;;;19.70;36.60;;;;;;5072127;28;20792;-76
2022/07/31 03:12:43;;;;;;;6.50;4.15;;;19.70;36.80;;;;;;5074101;28;20817;-75
2022/07/31 03:15:15;;;;;;;9.25;4.78;;;19.70;36.60;;;;;;5073147;28;20449;-75
2022/07/31 03:17:42;;;;;;;6.40;4.57;;;19.70;37.10;;;;;;5072190;28;20744;-76
2022/07/31 03:20:08;;;;;;;8.48;4.40;;;19.70;37.40;;;;;;5072023;28;20392;-75
2022/07/31 03:22:34;;;;;;;6.55;4.63;;;19.70;37.50;;;;;;5071392;28;20380;-76
2022/07/31 03:25:02;;;;;;;5.97;4.10;;;19.70;37.60;;;;;;5072527;28;20379;-75
2022/07/31 03:27:28;;;;;;;8.57;4.38;;;19.70;37.70;;;;;;5072266;28;20815;-75
2022/07/31 03:29:54;;;;;;;13.00;5.38;;;19.70;38.00;;;;;;5070609;28;20411;-75
2022/07/31 03:32:20;;;;;;;5.07;4.50;;;19.70;38.40;;;;;;5071360;28;20693;-75
2022/07/31 03:34:46;;;;;;;6.35;5.20;;;19.70;38.30;;;;;;5071352;28;20383;-75
2022/07/31 03:37:11;;;;;;;7.53;4.80;;;19.70;38.60;;;;;;5071128;28;20382;-75
2022/07/31 03:39:37;;;;;;;6.53;4.33;;;19.70;38.70;;;;;;5071386;28;20514;-75
2022/07/31 03:42:03;;;;;;;5.93;4.93;;;19.70;38.90;;;;;;5070936;28;20721;-75
2022/07/31 03:44:31;;;;;;;5.68;4.28;;;19.70;39.20;;;;;;5071484;28;20471;-75
2022/07/31 03:46:57;;;;;;;6.03;4.65;;;19.60;39.00;;;;;;5071199;28;20391;-75
2022/07/31 03:49:23;;;;;;;11.40;4.93;;;19.60;39.30;;;;;;5071095;28;20834;-75
2022/07/31 03:51:49;;;;;;;5.25;4.65;;;19.60;39.00;;;;;;5071148;28;20379;-75
2022/07/31 03:54:15;;;;;;;8.27;4.80;;;19.60;39.30;;;;;;5071367;28;20445;-75
2022/07/31 03:56:45;;;;;;;6.77;4.73;;;19.60;39.60;;;;;;5069617;28;20418;-75
2022/07/31 03:59:12;;;;;;;6.70;5.00;;;19.60;40.00;;;;;;5070052;28;20470;-76
2022/07/31 04:01:37;;;;;;;10.07;5.13;;;19.60;39.90;;;;;;5071907;28;20388;-75
2022/07/31 04:04:03;;;;;;;5.70;4.80;;;19.60;40.00;;;;;;5072250;28;20383;-75
2022/07/31 04:06:28;;;;;;;6.95;4.57;;;19.60;40.50;;;;;;5073377;28;20396;-75
2022/07/31 04:08:54;;;;;;;5.80;4.80;;;19.60;40.40;;;;;;5072671;28;20400;-75
2022/07/31 04:11:19;;;;;;;7.20;4.90;;;19.50;40.70;;;;;;5072390;28;20391;-75
2022/07/31 04:13:45;;;;;;;5.97;4.90;;;19.60;41.00;;;;;;5072239;28;20375;-75
2022/07/31 04:16:11;;;;;;;8.27;5.20;;;19.50;41.10;;;;;;5071553;28;20868;-75
2022/07/31 04:18:36;;;;;;;7.18;4.40;;;19.50;41.40;;;;;;5074218;28;20379;-75
2022/07/31 04:21:02;;;;;;;5.50;4.60;;;19.60;41.10;;;;;;5074023;28;20386;-75
2022/07/31 04:23:27;;;;;;;6.30;4.53;;;19.60;40.80;;;;;;5076090;28;20387;-75
2022/07/31 04:25:53;;;;;;;7.25;4.88;;;19.60;40.60;;;;;;5072438;28;20383;-74
2022/07/31 04:28:18;;;;;;;7.57;4.70;;;19.70;40.80;;;;;;5074248;28;20380;-74
2022/07/31 04:30:44;;;;;;;10.03;4.80;;;19.60;40.90;;;;;;5071587;28;20399;-75
2022/07/31 04:33:09;;;;;;;8.02;5.35;;;19.70;40.90;;;;;;5070826;28;20380;-74
2022/07/31 04:35:35;;;;;;;11.27;5.27;;;19.70;40.90;;;;;;5070673;28;20379;-74
2022/07/31 04:38:01;;;;;;;9.43;5.82;;;19.90;37.60;;;;;;5070636;28;20390;-74
2022/07/31 04:40:26;;;;;;;7.45;5.07;;;20.00;36.40;;;;;;5070571;28;20437;-74
2022/07/31 04:42:53;;;;;;;9.23;5.30;;;20.20;36.40;;;;;;5070431;28;20422;-74
2022/07/31 04:45:18;;;;;;;9.75;5.50;;;20.40;34.90;;;;;;5070497;28;20459;-74
2022/07/31 04:47:44;;;;;;;9.18;4.78;;;20.50;33.70;;;;;;5070672;28;20471;-74
2022/07/31 04:50:10;;;;;;;12.17;5.00;;;20.60;33.70;;;;;;5070419;28;20404;-75
2022/07/31 04:52:35;;;;;;;7.15;4.80;;;20.60;33.40;;;;;;5070410;28;20470;-75
2022/07/31 04:55:01;;;;;;;9.70;4.70;;;20.70;33.40;;;;;;5070345;28;20383;-76
2022/07/31 04:57:27;;;;;;;8.95;4.60;;;20.70;32.90;;;;;;5070215;28;20391;-75
2022/07/31 04:59:52;;;;;;;8.37;5.30;;;20.80;33.10;;;;;;5070335;28;20865;-75
2022/07/31 05:02:18;;;;;;;7.63;5.00;;;20.70;33.00;;;;;;5070322;28;20376;-75
2022/07/31 05:04:43;;;;;;;7.27;4.57;;;20.70;32.80;;;;;;5069201;28;20391;-75
2022/07/31 05:07:09;;;;;;;9.27;4.97;;;20.80;32.20;;;;;;5069460;28;20383;-75
2022/07/31 05:09:35;;;;;;;8.30;4.70;;;20.90;32.60;;;;;;5070320;28;20954;-75
2022/07/31 05:12:01;;;;;;;9.17;5.43;;;21.00;31.60;;;;;;5070675;28;20442;-75
2022/07/31 05:14:26;;;;;;;10.07;4.73;;;21.00;31.30;;;;;;5070809;28;20398;-75
2022/07/31 05:16:52;;;;;;;9.87;5.20;;;21.00;31.50;;;;;;5073324;28;20840;-75
2022/07/31 05:19:18;;;;;;;9.70;5.30;;;21.00;31.60;;;;;;5074141;28;20433;-75
2022/07/31 05:21:44;;;;;;;9.98;5.00;;;21.00;32.00;;;;;;5073932;28;20460;-75
2022/07/31 05:24:10;;;;;;;11.82;4.90;;;20.90;31.80;;;;;;5074126;28;20375;-75
2022/07/31 05:26:37;;;;;;;7.53;4.35;;;21.00;31.70;;;;;;5073997;28;20391;-74
2022/07/31 05:29:04;;;;;;;9.45;5.35;;;21.00;31.80;;;;;;5074197;28;20915;-76
2022/07/31 05:31:29;;;;;;;6.97;5.00;;;21.10;31.50;;;;;;5074403;28;20396;-75
2022/07/31 05:33:57;;;;;;;7.00;4.60;;;21.20;30.80;;;;;;5074349;28;20386;-76
2022/07/31 05:36:25;;;;;;;6.97;4.65;;;21.20;31.30;;;;;;5075029;28;20927;-75
2022/07/31 05:38:50;;;;;;;9.98;4.70;;;21.30;30.90;;;;;;5075499;28;20388;-75
2022/07/31 05:41:16;;;;;;;5.73;4.17;;;21.40;30.80;;;;;;5080511;28;20387;-74
2022/07/31 05:43:41;;;;;;;8.23;4.50;;;21.50;30.60;;;;;;5078599;28;20459;-76
2022/07/31 05:46:07;;;;;;;7.38;4.20;;;21.50;30.30;;;;;;5076814;28;20383;-76
2022/07/31 05:48:33;;;;;;;4.93;3.47;;;21.40;30.60;;;;;;5083492;28;20384;-75
2022/07/31 05:50:59;;;;;;;4.65;4.05;;;21.40;30.80;;;;;;5083509;28;20560;-75
2022/07/31 05:53:25;;;;;;;6.80;3.67;;;21.40;30.70;;;;;;5086627;28;20372;-74
2022/07/31 05:55:51;;;;;;;6.18;4.00;;;21.40;30.80;;;;;;5086262;28;20504;-74
2022/07/31 05:58:18;;;;;;;5.57;4.20;;;21.40;31.00;;;;;;5087337;28;20376;-74
2022/07/31 06:00:47;;;;;;;6.00;3.80;;;21.50;30.70;;;;;;5085364;28;20384;-74
2022/07/31 06:03:13;;;;;;;8.05;3.70;;;21.50;30.60;;;;;;5075214;28;20903;-74
2022/07/31 06:05:40;;;;;;;7.33;3.40;;;21.60;30.20;;;;;;5072675;28;20388;-75
2022/07/31 06:08:05;;;;;;;4.20;3.47;;;21.70;30.00;;;;;;5073747;28;20756;-75
2022/07/31 06:10:31;;;;;;;5.70;3.20;;;21.90;29.60;;;;;;5073348;28;20399;-75
2022/07/31 06:12:57;;;;;;;4.63;3.22;;;22.00;29.20;;;;;;5073463;28;20445;-74
2022/07/31 06:15:23;;;;;;;10.47;3.50;;;22.10;29.60;;;;;;5073388;28;20407;-75
2022/07/31 06:17:48;;;;;;;6.30;3.40;;;22.00;29.30;;;;;;5073296;28;20454;-75
2022/07/31 06:20:14;;;;;;;4.88;3.13;;;22.20;29.00;;;;;;5074494;28;20402;-75
2022/07/31 06:22:42;;;;;;;4.65;2.90;;;22.50;28.10;;;;;;5073625;28;20375;-74
2022/07/31 06:25:09;;;;;;;4.38;2.70;;;22.50;27.80;;;;;;5074929;28;20919;-76
2022/07/31 06:27:35;;;;;;;10.75;3.10;;;22.60;27.30;;;;;;5071859;28;20403;-76
2022/07/31 06:30:02;;;;;;;4.47;2.97;;;22.80;26.80;;;;;;5073612;28;20411;-76
2022/07/31 06:32:28;;;;;;;3.67;3.10;;;22.80;26.60;;;;;;5072766;28;20383;-76
2022/07/31 06:34:54;;;;;;;4.20;2.90;;;22.80;27.00;;;;;;5072964;28;20379;-73
2022/07/31 06:37:19;;;;;;;7.03;3.27;;;22.80;26.60;;;;;;5072899;28;20856;-74
2022/07/31 06:39:45;;;;;;;4.85;2.88;;;23.00;26.10;;;;;;5072609;28;20752;-75
2022/07/31 06:42:16;;;;;;;6.47;2.63;;;23.20;25.00;;;;;;5072368;28;20379;-74
2022/07/31 06:44:42;;;;;;;3.20;2.90;;;23.00;25.50;;;;;;5072289;28;20763;-75
2022/07/31 06:47:08;;;;;;;3.65;2.78;;;23.10;25.60;;;;;;5071059;28;20384;-75
2022/07/31 06:49:33;;;;;;;7.40;2.90;;;23.00;25.50;;;;;;5072438;28;20396;-75
2022/07/31 06:51:59;;;;;;;7.00;2.80;;;22.90;26.30;;;;;;5072855;28;20391;-74
2022/07/31 06:54:24;;;;;;;2.73;2.40;;;23.00;26.80;;;;;;5072342;28;20411;-75
2022/07/31 06:56:50;;;;;;;2.90;2.60;;;23.20;25.80;;;;;;5072724;28;20806;-75
2022/07/31 06:59:16;;;;;;;4.00;2.60;;;23.10;25.70;;;;;;5073004;28;20391;-75
2022/07/31 07:01:41;;;;;;;3.72;2.67;;;23.00;26.40;;;;;;5075482;28;20392;-75
2022/07/31 07:04:08;;;;;;;2.75;2.00;;;23.00;26.70;;;;;;5066687;28;20472;-75
2022/07/31 07:06:33;;;;;;;3.67;2.30;;;22.90;27.40;;;;;;5066331;28;20389;-74
2022/07/31 07:08:59;;;;;;;5.28;2.13;;;22.80;27.90;;;;;;5050472;28;20415;-75
2022/07/31 07:11:24;;;;;;;2.93;2.10;;;22.80;28.00;;;;;;5045846;28;20397;-76
2022/07/31 07:13:50;;;;;;;2.30;2.10;;;22.70;28.60;;;;;;5058272;28;20806;-77
2022/07/31 07:16:16;;;;;;;4.00;2.70;;;22.70;29.80;;;;;;5044958;28;20733;-75
2022/07/31 07:18:41;;;;;;;3.63;2.47;;;22.50;30.70;;;;;;5037868;28;20425;-76
2022/07/31 07:21:07;;;;;;;4.00;2.50;;;22.40;32.00;;;;;;5036496;28;20441;-78
2022/07/31 07:23:33;;;;;;;3.45;2.63;;;22.40;32.60;;;;;;5036115;28;20385;-75
2022/07/31 07:25:58;;;;;;;4.97;2.70;;;22.30;33.30;;;;;;5046464;28;20436;-75
2022/07/31 07:28:24;;;;;;;6.32;2.83;;;22.20;34.20;;;;;;5051673;28;20385;-77
2022/07/31 07:30:49;;;;;;;3.80;2.90;;;22.10;34.30;;;;;;5045670;28;20411;-81
2022/07/31 07:33:15;;;;;;;5.43;3.00;;;22.00;35.30;;;;;;5050899;28;20763;-75
2022/07/31 07:35:41;;;;;;;7.35;3.03;;;22.20;35.50;;;;;;5052969;28;20388;-78
2022/07/31 07:38:07;;;;;;;4.55;3.13;;;22.30;35.10;;;;;;5037477;28;20418;-77
2022/07/31 07:40:32;;;;;;;4.90;3.07;;;22.50;34.80;;;;;;5031627;28;20384;-77
2022/07/31 07:42:58;;;;;;;3.40;2.58;;;22.80;33.10;;;;;;5042077;28;20488;-77
2022/07/31 07:45:24;;;;;;;3.83;2.70;;;22.90;33.00;;;;;;5051316;28;20385;-75
2022/07/31 07:47:49;;;;;;;3.80;2.65;;;23.10;31.80;;;;;;5051843;28;20419;-79
2022/07/31 07:50:15;;;;;;;6.55;2.90;;;23.30;31.00;;;;;;5042768;28;20411;-75
2022/07/31 07:52:41;;;;;;;5.80;2.90;;;23.50;29.80;;;;;;5038381;28;20792;-75
2022/07/31 07:55:08;;;;;;;9.27;2.95;;;23.50;29.70;;;;;;5042576;28;20404;-75
2022/07/31 07:57:36;;;;;;;4.63;2.90;;;23.60;29.80;;;;;;5061323;22;20441;-74
2022/07/31 08:00:05;;;;;;;7.20;3.58;;;23.80;28.80;;;;;;5049812;28;20420;-73
2022/07/31 08:02:31;;;;;;;4.18;2.60;;;24.00;28.00;;;;;;5051164;28;20901;-74
2022/07/31 08:04:57;;;;;;;5.23;2.33;;;24.00;28.20;;;;;;5051312;28;20401;-74
2022/07/31 08:07:36;;;;;;;3.97;2.53;;;24.40;26.70;;;;;;5049844;28;20758;-75
2022/07/31 08:10:03;;;;;;;3.10;2.10;;;24.50;26.30;;;;;;5051317;28;20408;-73
2022/07/31 08:12:29;;;;;;;4.53;2.45;;;24.50;26.70;;;;;;5051102;28;20718;-74
2022/07/31 08:14:55;;;;;;;3.90;2.33;;;24.70;26.20;;;;;;5051243;28;20385;-74
2022/07/31 08:17:20;;;;;;;3.45;2.30;;;24.40;26.70;;;;;;5051356;28;20389;-74
2022/07/31 08:19:46;;;;;;;2.73;2.40;;;24.40;27.80;;;;;;5051199;28;20388;-74
2022/07/31 08:22:12;;;;;;;3.65;2.20;;;24.40;26.70;;;;;;5051553;28;20419;-75
2022/07/31 08:24:38;;;;;;;4.00;2.85;;;24.10;27.90;;;;;;5051214;28;20491;-73
2022/07/31 08:29:48;;;;;;;3.75;2.42;;;23.70;29.60;;;;;;5052177;28;20432;-74
2022/07/31 08:32:14;;;;;;;5.65;2.50;;;23.50;30.50;;;;;;5051526;28;20381;-74
2022/07/31 08:34:39;;;;;;;3.65;2.22;;;23.60;30.50;;;;;;5052233;28;20386;-75
2022/07/31 08:37:06;;;;;;;3.67;2.30;;;23.60;30.70;;;;;;5053738;28;20424;-76
2022/07/31 08:39:32;;;;;;;4.82;2.40;;;23.80;30.30;;;;;;5059122;28;20385;-73
2022/07/31 08:41:58;;;;;;;3.25;2.20;;;24.00;29.50;;;;;;5058060;28;20389;-75
2022/07/31 08:44:24;;;;;;;2.20;2.00;;;24.20;28.90;;;;;;5061058;28;20388;-74
2022/07/31 08:46:53;;;;;;;4.50;2.10;;;24.30;28.60;;;;;;5069595;28;20421;-74
2022/07/31 08:49:24;;;;;;;2.80;1.83;;;24.50;27.40;;;;;;5064513;28;20429;-74
2022/07/31 08:51:50;;;;;;;3.43;1.97;;;24.50;27.20;;;;;;5061588;28;20401;-74
2022/07/31 08:54:17;;;;;;;3.97;2.43;;;24.50;27.90;;;;;;5056270;28;20381;-74
2022/07/31 08:56:45;;;;;;;4.35;2.20;;;24.50;27.80;;;;;;5073252;28;20400;-74
2022/07/31 08:59:10;;;;;;;5.47;2.20;;;24.60;27.80;;;;;;5072340;28;20472;-73
2022/07/31 09:01:36;;;;;;;7.20;2.00;;;24.80;27.40;;;;;;5065210;28;20447;-75
2022/07/31 09:04:02;;;;;;;3.80;2.00;;;25.00;26.80;;;;;;5054940;28;20391;-74
2022/07/31 09:06:28;;;;;;;2.30;2.10;;;25.10;25.50;;;;;;5054302;28;20393;-74
2022/07/31 09:08:56;;;;;;;2.55;2.00;;;25.00;25.70;;;;;;5054419;28;20392;-74
2022/07/31 09:11:22;;;;;;;4.82;2.40;;;25.30;25.20;;;;;;5054197;28;20435;-75
2022/07/31 09:14:02;;;;;;;6.45;2.35;;;25.50;24.20;;;;;;5052993;28;20391;-74
2022/07/31 09:16:28;;;;;;;3.60;2.05;;;25.40;23.50;;;;;;5054252;28;20376;-74
2022/07/31 09:18:58;;;;;;;5.40;2.20;;;25.40;23.80;;;;;;5054101;28;20377;-75
2022/07/31 09:21:24;;;;;;;3.10;2.40;;;25.50;23.60;;;;;;5054322;28;20389;-74
2022/07/31 09:23:51;;;;;;;4.88;2.08;;;25.80;22.80;;;;;;5054655;28;20378;-74
2022/07/31 09:26:17;;;;;;;3.28;2.30;;;25.90;22.10;;;;;;5054456;28;20386;-73
2022/07/31 09:28:51;;;;;;;4.30;2.17;;;26.00;22.00;;;;;;5054061;28;20404;-74
2022/07/31 09:31:16;;;;;;;4.53;2.60;;;26.20;22.10;;;;;;5054053;28;20406;-75
2022/07/31 09:33:44;;;;;;;2.97;2.20;;;26.30;21.40;;;;;;5053979;28;20420;-74
2022/07/31 09:36:10;;;;;;;3.30;2.30;;;26.30;20.00;;;;;;5054149;28;20377;-72
2022/07/31 09:38:40;;;;;;;3.28;2.20;;;26.20;20.50;;;;;;5054033;28;20427;-74
2022/07/31 09:41:19;;;;;;;3.38;2.30;;;25.90;21.00;;;;;;5052439;28;20437;-74
2022/07/31 09:43:59;;;;;;;3.60;2.58;;;25.70;22.30;;;;;;5054038;28;20393;-74
2022/07/31 09:46:26;;;;;;;3.88;2.90;;;25.70;22.20;;;;;;5054388;28;20392;-74
2022/07/31 09:48:54;;;;;;;9.30;2.65;;;25.60;22.70;;;;;;5053540;28;20392;-73
2022/07/31 09:51:20;;;;;;;5.00;2.50;;;25.60;22.90;;;;;;5053843;28;20892;-74
2022/07/31 09:53:51;;;;;;;4.50;2.60;;;25.60;22.50;;;;;;5054569;28;20389;-75
2022/07/31 09:56:28;;;;;;;4.07;2.60;;;25.70;22.70;;;;;;5054527;28;20381;-74
2022/07/31 09:58:54;;;;;;;5.18;4.03;;;25.70;21.70;;;;;;5053861;28;20387;-73
2022/07/31 10:01:20;;;;;;;5.55;2.67;;;25.50;22.50;;;;;;5053036;28;20477;-74
2022/07/31 10:03:49;;;;;;;4.47;2.70;;;25.20;23.50;;;;;;5053355;28;20377;-74
2022/07/31 10:06:16;;;;;;;5.05;2.42;;;25.00;24.30;;;;;;5053512;28;20405;-74
2022/07/31 10:08:43;;;;;;;3.22;2.63;;;25.00;25.10;;;;;;5053228;28;20464;-75
2022/07/31 10:11:09;;;;;;;4.25;2.47;;;25.10;24.50;;;;;;5053236;28;20416;-74
2022/07/31 10:13:39;;;;;;;3.50;2.60;;;25.20;24.40;;;;;;5053322;28;20378;-74
2022/07/31 10:16:06;;;;;;;4.32;2.53;;;25.20;24.50;;;;;;5052799;28;20416;-74
2022/07/31 10:18:37;;;;;;;3.37;2.50;;;25.30;24.30;;;;;;5052843;28;20406;-74
2022/07/31 10:21:05;;;;;;;4.10;2.50;;;25.60;23.40;;;;;;5052913;28;20373;-74
2022/07/31 10:23:33;;;;;;;5.05;2.40;;;25.90;22.20;;;;;;5052949;28;20473;-72
2022/07/31 10:26:00;;;;;;;5.23;3.07;;;26.50;20.90;;;;;;5067554;28;20390;-73
2022/07/31 10:28:30;;;;;;;4.35;2.65;;;26.90;19.80;;;;;;5068470;28;20397;-72
2022/07/31 10:30:56;;;;;;;3.78;2.70;;;27.10;19.10;;;;;;5065665;28;20821;-75
2022/07/31 10:33:22;;;;;;;4.28;2.63;;;27.30;18.90;;;;;;5053940;28;20386;-73
2022/07/31 10:36:00;;;;;;;2.87;2.47;;;27.50;18.70;;;;;;5053083;28;20384;-73
2022/07/31 10:39:08;;;;;;;3.60;2.40;;;27.50;18.10;;;;;;5052009;28;20443;-74
2022/07/31 10:41:49;;;;;;;3.17;2.38;;;27.50;18.00;;;;;;5041813;28;20947;-74
2022/07/31 10:44:47;;;;;;;3.03;2.63;;;27.70;17.40;;;;;;5052715;28;20385;-75
2022/07/31 10:47:14;;;;;;;2.90;2.35;;;27.80;17.00;;;;;;5052410;28;20389;-77
2022/07/31 10:49:45;;;;;;;5.10;2.60;;;28.10;16.70;;;;;;5052602;28;20878;-74
2022/07/31 10:52:10;;;;;;;7.18;2.45;;;28.20;16.90;;;;;;5052818;28;20408;-74
2022/07/31 10:54:45;;;;;;;4.55;2.38;;;28.60;16.80;;;;;;5052792;28;20374;-75
2022/07/31 10:57:28;;;;;;;7.25;2.30;;;28.70;15.80;;;;;;5051671;28;20823;-75
2022/07/31 10:59:54;;;;;;;2.90;2.10;;;28.60;15.70;;;;;;5052797;28;20385;-75
2022/07/31 11:02:33;;;;;;;2.80;2.40;;;28.40;16.30;;;;;;5052595;28;20381;-75
2022/07/31 11:05:21;;;;;;;5.03;2.50;;;28.60;15.70;;;;;;5052359;28;20908;-74
2022/07/31 11:07:58;;;;;;;3.60;2.30;;;28.60;15.50;;;;;;5052404;28;20446;-75
2022/07/31 11:10:23;;;;;;;6.00;2.55;;;28.70;15.30;;;;;;5052448;28;20989;-74
2022/07/31 11:13:03;;;;;;;3.78;2.95;;;28.80;15.00;;;;;;5052312;28;20546;-76
2022/07/31 11:15:30;;;;;;;3.17;2.83;;;28.60;15.20;;;;;;5052322;28;20747;-75
2022/07/31 11:17:56;;;;;;;4.78;2.20;;;28.50;15.40;;;;;;5052409;28;20480;-74
2022/07/31 11:20:29;;;;;;;3.20;2.40;;;28.50;15.90;;;;;;5052794;28;20400;-74
2022/07/31 11:23:05;;;;;;;3.60;2.20;;;28.60;15.60;;;;;;5052627;28;20881;-75
2022/07/31 11:25:34;;;;;;;4.05;2.40;;;28.60;14.90;;;;;;5052789;28;20377;-76
2022/07/31 11:28:23;;;;;;;3.00;2.55;;;28.50;15.30;;;;;;5052591;28;20393;-74
2022/07/31 11:30:54;;;;;;;4.05;2.38;;;28.50;15.30;;;;;;5052932;28;20928;-75
2022/07/31 11:33:40;;;;;;;2.53;2.33;;;28.30;16.00;;;;;;5051469;28;20424;-75
2022/07/31 11:36:16;;;;;;;3.65;2.50;;;28.20;16.00;;;;;;5051657;28;20386;-75
2022/07/31 11:38:45;;;;;;;3.13;2.50;;;28.30;16.20;;;;;;5051462;28;20862;-77
2022/07/31 11:41:11;;;;;;;6.82;2.55;;;28.20;16.20;;;;;;5052611;28;20460;-75
2022/07/31 11:43:41;;;;;;;4.95;2.30;;;28.20;16.50;;;;;;5052529;28;20381;-75
2022/07/31 11:46:07;;;;;;;5.95;2.50;;;28.20;15.70;;;;;;5052590;28;20385;-76
2022/07/31 11:48:36;;;;;;;5.18;2.50;;;28.30;15.50;;;;;;5052280;28;20754;-76
2022/07/31 11:51:01;;;;;;;3.10;2.80;;;28.20;15.30;;;;;;5052841;28;20405;-75
2022/07/31 11:53:27;;;;;;;5.55;2.60;;;28.50;15.30;;;;;;5053774;28;20381;-75
2022/07/31 11:55:56;;;;;;;3.43;2.40;;;28.50;15.60;;;;;;5060587;28;20381;-75
2022/07/31 11:58:24;;;;;;;6.43;2.20;;;28.70;14.80;;;;;;5072913;28;20417;-75
2022/07/31 12:00:55;;;;;;;2.97;2.45;;;28.80;13.90;;;;;;5071235;28;20389;-76
2022/07/31 12:03:35;;;;;;;3.28;2.17;;;28.80;13.50;;;;;;5057484;28;20389;-75
2022/07/31 12:06:01;;;;;;;3.70;2.40;;;29.10;14.10;;;;;;5051808;28;20385;-75
2022/07/31 12:08:29;;;;;;;2.88;2.20;;;29.50;13.50;;;;;;5051983;28;20385;-75
2022/07/31 12:10:56;;;;;;;3.85;2.30;;;29.80;12.60;;;;;;5051349;28;20757;-75
2022/07/31 12:13:23;;;;;;;4.80;1.90;;;29.80;12.40;;;;;;5051631;28;20885;-75
2022/07/31 12:16:06;;;;;;;2.55;2.25;;;30.00;12.70;;;;;;5051176;28;20385;-75
2022/07/31 12:18:55;;;;;;;4.97;2.10;;;30.80;11.10;;;;;;5050925;28;20442;-75
2022/07/31 12:21:29;;;;;;;2.07;1.97;;;30.60;11.00;;;;;;5051194;28;20480;-75
2022/07/31 12:23:57;;;;;;;2.80;2.30;;;30.20;11.30;;;;;;5051498;28;20456;-74
2022/07/31 12:26:28;;;;;;;2.40;2.20;;;30.10;11.90;;;;;;5051130;28;20446;-74
2022/07/31 12:29:02;;;;;;;3.00;2.20;;;30.20;12.00;;;;;;5051195;28;20836;-74
2022/07/31 12:31:29;;;;;;;4.10;2.40;;;30.20;11.70;;;;;;5049710;28;20377;-74
2022/07/31 12:33:55;;;;;;;2.80;2.60;;;30.00;12.20;;;;;;5049573;28;20381;-75
2022/07/31 12:36:21;;;;;;;3.60;3.00;;;29.90;11.90;;;;;;5050778;28;20755;-75
2022/07/31 12:38:58;;;;;;;3.00;2.80;;;29.60;12.10;;;;;;5050336;28;20385;-74
2022/07/31 12:41:23;;;;;;;2.50;2.30;;;29.40;12.80;;;;;;5050476;28;20382;-74
2022/07/31 12:43:49;;;;;;;6.65;3.00;;;29.30;13.20;;;;;;5050741;28;20772;-75
2022/07/31 12:46:14;;;;;;;3.30;2.93;;;28.60;14.40;;;;;;5050260;28;20386;-75
2022/07/31 12:48:40;;;;;;;7.38;3.30;;;28.30;14.90;;;;;;5050984;28;20386;-73
2022/07/31 12:51:06;;;;;;;3.20;2.90;;;28.00;15.60;;;;;;5050429;28;20405;-74